createdAt,value
2023-12-08T00:02:15.145Z,100478.22
2023-12-08T00:04:43.527Z,100469.44
2023-12-08T00:07:11.932Z,100453.97
2023-12-08T00:09:40.268Z,100496.38
2023-12-08T00:12:09.347Z,100492.84
2023-12-08T00:14:37.806Z,100478.75
2023-12-08T00:17:07.972Z,100470.97
2023-12-08T00:19:36.581Z,100480.41
2023-12-08T00:22:05.632Z,100479.56
2023-12-08T00:24:34.653Z,100469.09
2023-12-08T00:27:03.145Z,100477.69
2023-12-08T00:29:31.667Z,100482.97
2023-12-08T00:32:00.115Z,100484.69
2023-12-08T00:34:30.018Z,100468.06
2023-12-08T00:36:58.821Z,100476.16
2023-12-08T00:39:27.195Z,100478.56
2023-12-08T00:41:55.693Z,100485.53
2023-12-08T00:44:24.910Z,100485.53
2023-12-08T00:46:54.094Z,100484.63
2023-12-08T00:49:22.598Z,100483.88
2023-12-08T00:51:52.373Z,100494.41
2023-12-08T00:54:20.820Z,100495.94
2023-12-08T00:56:49.506Z,100482.22
2023-12-08T00:59:18.356Z,100480.44
2023-12-08T01:01:46.812Z,100483.38
2023-12-08T01:04:15.383Z,100471.03
2023-12-08T01:06:43.860Z,100476.91
2023-12-08T01:09:14.003Z,100472.69
2023-12-08T01:11:42.772Z,100462.28
2023-12-08T01:14:11.142Z,100468.53
2023-12-08T01:16:42.430Z,100445.78
2023-12-08T01:19:12.824Z,100451.91
2023-12-08T01:21:41.846Z,100456.91
2023-12-08T01:24:10.373Z,100433.31
2023-12-08T01:26:45.118Z,100452.63
2023-12-08T01:29:13.528Z,100451.13
2023-12-08T01:31:42.048Z,100454.44
2023-12-08T01:34:10.515Z,100449.34
2023-12-08T01:36:43.120Z,100442.06
2023-12-08T01:39:13.905Z,100428.00
2023-12-08T01:41:44.277Z,100427.97
2023-12-08T01:44:12.691Z,100391.69
2023-12-08T01:46:41.094Z,100411.22
2023-12-08T01:49:09.574Z,100389.25
2023-12-08T01:51:38.089Z,100393.06
2023-12-08T01:54:07.583Z,100414.91
2023-12-08T01:56:37.083Z,100408.81
2023-12-08T01:59:07.420Z,100398.25
2023-12-08T02:01:35.899Z,100395.66
2023-12-08T02:04:06.421Z,100377.28
2023-12-08T02:06:35.630Z,100371.78
2023-12-08T02:09:04.366Z,100383.09
2023-12-08T02:11:32.897Z,100368.44
2023-12-08T02:14:01.299Z,100370.31
2023-12-08T02:16:41.435Z,100369.28
2023-12-08T02:19:10.630Z,100351.81
2023-12-08T02:21:39.327Z,100391.16
2023-12-08T02:24:09.475Z,100426.47
2023-12-08T02:26:38.109Z,100424.13
2023-12-08T02:29:09.893Z,100401.66
2023-12-08T02:31:42.692Z,100415.69
2023-12-08T02:34:12.473Z,100406.25
2023-12-08T02:36:41.405Z,100420.13
2023-12-08T02:39:13.241Z,100416.03
2023-12-08T02:41:43.712Z,100436.75
2023-12-08T02:44:11.949Z,100425.59
2023-12-08T02:46:41.781Z,100410.50
2023-12-08T02:49:10.233Z,100411.63
2023-12-08T02:51:38.644Z,100275.44
2023-12-08T02:54:07.119Z,100399.44
2023-12-08T02:56:36.822Z,100407.50
2023-12-08T02:59:05.198Z,100405.63
2023-12-08T03:01:33.728Z,100400.03
2023-12-08T03:04:02.769Z,100393.31
2023-12-08T03:06:31.382Z,100389.00
2023-12-08T03:08:59.743Z,100368.69
2023-12-08T03:11:28.147Z,100359.91
2023-12-08T03:13:57.857Z,100328.34
2023-12-08T03:16:26.262Z,100334.38
2023-12-08T03:18:54.676Z,100339.69
2023-12-08T03:21:24.014Z,100338.91
2023-12-08T03:23:53.016Z,100340.69
2023-12-08T03:26:21.821Z,100325.69
2023-12-08T03:28:50.163Z,100352.09
2023-12-08T03:31:28.573Z,100338.28
2023-12-08T03:33:57.185Z,100333.16
2023-12-08T03:36:25.891Z,100365.47
2023-12-08T03:38:54.288Z,100348.19
2023-12-08T03:41:23.310Z,100336.81
2023-12-08T03:43:51.668Z,100347.38
2023-12-08T03:46:20.005Z,100335.19
2023-12-08T03:48:51.867Z,100324.84
2023-12-08T03:51:21.879Z,100332.63
2023-12-08T03:53:50.234Z,100331.66
2023-12-08T03:56:18.588Z,100332.50
2023-12-08T03:58:46.938Z,100341.41
2023-12-08T04:01:18.886Z,100349.34
2023-12-08T04:03:47.392Z,100329.34
2023-12-08T04:06:17.355Z,100336.09
2023-12-08T04:08:45.785Z,100334.56
2023-12-08T04:11:14.165Z,100331.88
2023-12-08T04:13:42.455Z,100326.72
2023-12-08T04:16:11.593Z,100316.09
2023-12-08T04:18:40.098Z,100318.69
2023-12-08T04:21:08.835Z,100325.72
2023-12-08T04:23:39.116Z,100330.03
2023-12-08T04:26:09.313Z,100298.63
2023-12-08T04:28:37.966Z,100352.88
2023-12-08T04:31:06.824Z,100339.78
2023-12-08T04:33:35.555Z,100337.19
2023-12-08T04:36:04.381Z,100332.84
2023-12-08T04:38:32.859Z,100306.41
2023-12-08T04:41:02.570Z,100308.22
2023-12-08T04:43:30.901Z,100305.69
2023-12-08T04:45:59.371Z,100324.06
2023-12-08T04:48:28.108Z,100318.78
2023-12-08T04:50:57.095Z,100324.22
2023-12-08T04:53:25.463Z,100320.72
2023-12-08T04:55:53.896Z,100316.44
2023-12-08T04:58:24.351Z,100292.78
2023-12-08T05:00:52.991Z,100314.03
2023-12-08T05:03:21.471Z,100322.97
2023-12-08T05:05:50.071Z,100319.44
2023-12-08T05:08:18.517Z,100329.00
2023-12-08T05:10:46.885Z,100339.50
2023-12-08T05:13:15.282Z,100343.91
2023-12-08T05:15:45.025Z,100333.38
2023-12-08T05:18:13.544Z,100330.66
2023-12-08T05:20:42.042Z,100339.34
2023-12-08T05:23:10.360Z,100322.81
2023-12-08T05:25:38.656Z,100330.56
2023-12-08T05:28:07.365Z,100347.09
2023-12-08T05:30:35.629Z,100317.56
2023-12-08T05:33:05.768Z,100321.09
2023-12-08T05:35:34.329Z,100330.66
2023-12-08T05:38:02.835Z,100322.72
2023-12-08T05:40:31.444Z,100291.09
2023-12-08T05:43:00.249Z,100319.28
2023-12-08T05:45:28.595Z,100317.50
2023-12-08T05:47:57.186Z,100310.56
2023-12-08T05:50:26.990Z,100327.13
2023-12-08T05:52:55.334Z,100333.44
2023-12-08T05:55:23.662Z,100350.88
2023-12-08T05:57:52.145Z,100342.25
2023-12-08T06:00:21.690Z,100329.09
2023-12-08T06:02:50.254Z,100345.63
2023-12-08T06:05:19.673Z,100347.44
2023-12-08T06:07:49.617Z,100349.28
2023-12-08T06:10:18.444Z,100339.72
2023-12-08T06:12:46.751Z,100332.72
2023-12-08T06:15:15.113Z,100338.00
2023-12-08T06:17:44.033Z,100337.94
2023-12-08T06:20:13.898Z,100340.53
2023-12-08T06:22:43.711Z,100344.81
2023-12-08T06:25:13.481Z,100351.84
2023-12-08T06:27:41.858Z,100350.06
2023-12-08T06:30:12.311Z,100357.91
2023-12-08T06:32:40.780Z,100341.53
2023-12-08T06:35:09.745Z,100340.69
2023-12-08T06:37:38.094Z,100349.44
2023-12-08T06:40:08.879Z,100348.66
2023-12-08T06:42:38.611Z,100357.38
2023-12-08T06:45:09.900Z,100345.16
2023-12-08T06:47:38.673Z,100352.16
2023-12-08T06:50:08.580Z,100353.09
2023-12-08T06:52:36.933Z,100346.09
2023-12-08T06:55:06.100Z,100341.75
2023-12-08T06:57:34.731Z,100338.41
2023-12-08T07:00:11.402Z,100345.31
2023-12-08T07:02:40.171Z,100334.72
2023-12-08T07:05:09.808Z,100352.34
2023-12-08T07:07:39.259Z,100346.31
2023-12-08T07:10:09.312Z,100349.97
2023-12-08T07:12:38.031Z,100363.13
2023-12-08T07:15:09.638Z,100359.72
2023-12-08T07:17:38.803Z,100359.66
2023-12-08T07:20:10.376Z,100358.81
2023-12-08T07:22:39.160Z,100359.75
2023-12-08T07:25:11.071Z,100361.56
2023-12-08T07:27:39.438Z,100342.22
2023-12-08T07:30:11.337Z,100369.47
2023-12-08T07:32:39.791Z,100360.75
2023-12-08T07:35:10.103Z,100363.41
2023-12-08T07:37:42.171Z,100370.50
2023-12-08T07:40:12.546Z,100380.09
2023-12-08T07:42:40.974Z,100383.47
2023-12-08T07:45:12.103Z,100268.53
2023-12-08T07:47:40.690Z,100394.19
2023-12-08T07:50:10.280Z,100393.25
2023-12-08T07:52:39.627Z,100394.25
2023-12-08T07:55:09.272Z,100392.47
2023-12-08T07:57:37.663Z,100399.47
2023-12-08T08:00:09.603Z,100406.47
2023-12-08T08:02:39.519Z,100395.09
2023-12-08T08:05:08.314Z,100406.50
2023-12-08T08:07:36.652Z,100403.09
2023-12-08T08:10:05.696Z,100407.56
2023-12-08T08:12:34.780Z,100410.19
2023-12-08T08:15:03.719Z,100410.22
2023-12-08T08:17:32.580Z,100398.03
2023-12-08T08:20:02.459Z,100414.69
2023-12-08T08:22:32.950Z,100419.09
2023-12-08T08:25:02.700Z,100422.56
2023-12-08T08:27:33.155Z,100434.88
2023-12-08T08:30:01.792Z,100435.78
2023-12-08T08:32:30.382Z,100430.56
2023-12-08T08:34:59.836Z,100441.97
2023-12-08T08:37:30.504Z,100446.38
2023-12-08T08:39:59.285Z,100447.28
2023-12-08T08:42:28.211Z,100439.38
2023-12-08T08:44:56.747Z,100440.28
2023-12-08T08:47:25.606Z,100442.91
2023-12-08T08:49:54.352Z,100435.88
2023-12-08T08:52:22.764Z,100436.78
2023-12-08T08:54:52.478Z,100445.56
2023-12-08T08:57:20.889Z,100450.81
2023-12-08T08:59:49.248Z,100449.97
2023-12-08T09:02:17.597Z,100454.31
2023-12-08T09:04:46.093Z,100454.38
2023-12-08T09:07:14.616Z,100451.72
2023-12-08T09:09:44.818Z,100458.75
2023-12-08T09:12:14.852Z,100457.84
2023-12-08T09:14:43.252Z,100445.56
2023-12-08T09:17:11.663Z,100434.16
2023-12-08T09:19:40.244Z,100449.97
2023-12-08T09:22:08.694Z,100456.09
2023-12-08T09:24:37.011Z,100461.38
2023-12-08T09:27:06.081Z,100475.41
2023-12-08T09:29:36.795Z,100464.88
2023-12-08T09:32:06.032Z,100480.69
2023-12-08T09:34:34.805Z,100473.66
2023-12-08T09:37:26.148Z,100482.41
2023-12-08T09:39:52.078Z,100485.94
2023-12-08T09:42:33.743Z,100465.75
2023-12-08T09:45:05.719Z,100483.25
2023-12-08T09:47:36.902Z,100481.50
2023-12-08T09:50:08.394Z,100486.75
2023-12-08T09:52:37.584Z,100464.78
2023-12-08T09:55:07.668Z,100491.97
2023-12-08T09:57:36.929Z,100494.59
2023-12-08T10:00:12.803Z,100501.59
2023-12-08T10:02:42.478Z,100507.75
2023-12-08T10:05:12.931Z,100505.16
2023-12-08T10:07:43.474Z,100509.56
2023-12-08T10:10:12.284Z,100511.28
2023-12-08T10:12:42.309Z,100395.47
2023-12-08T10:15:14.026Z,100510.34
2023-12-08T10:17:51.151Z,100501.56
2023-12-08T10:20:21.891Z,100522.69
2023-12-08T10:22:52.837Z,100495.38
2023-12-08T10:25:22.920Z,100481.34
2023-12-08T10:27:52.915Z,100495.34
2023-12-08T10:30:25.058Z,100485.63
2023-12-08T10:32:54.783Z,100491.75
2023-12-08T10:35:24.603Z,100493.50
2023-12-08T10:37:53.032Z,100460.16
2023-12-08T10:40:21.401Z,100494.38
2023-12-08T10:42:50.322Z,100492.59
2023-12-08T10:45:19.900Z,100502.25
2023-12-08T10:47:51.874Z,100497.81
2023-12-08T10:50:22.907Z,100512.78
2023-12-08T10:52:54.349Z,100510.13
2023-12-08T10:55:22.695Z,100511.00
2023-12-08T10:57:55.672Z,100506.63
2023-12-08T11:00:27.528Z,100518.06
2023-12-08T11:02:58.653Z,100513.72
2023-12-08T11:05:32.871Z,100517.25
2023-12-08T11:08:05.114Z,100527.81
2023-12-08T11:10:38.918Z,100526.03
2023-12-08T11:13:11.355Z,100499.75
2023-12-08T11:15:43.605Z,100523.44
2023-12-08T11:18:26.021Z,100521.59
2023-12-08T11:20:55.094Z,100518.94
2023-12-08T11:23:24.141Z,100518.94
2023-12-08T11:26:14.260Z,100517.16
2023-12-08T11:28:59.074Z,100511.91
2023-12-08T11:31:37.619Z,100523.31
2023-12-08T11:34:19.262Z,100507.50
2023-12-08T11:36:48.108Z,100512.69
2023-12-08T11:39:44.751Z,100510.88
2023-12-08T11:42:15.047Z,100517.03
2023-12-08T11:44:45.651Z,100514.41
2023-12-08T11:47:16.068Z,100521.47
2023-12-08T11:49:48.352Z,100510.03
2023-12-08T11:52:19.689Z,100516.13
2023-12-08T11:55:13.628Z,100525.78
2023-12-08T11:58:07.059Z,100518.75
2023-12-08T12:00:37.677Z,100518.72
2023-12-08T12:03:07.352Z,100495.91
2023-12-08T12:05:39.679Z,100529.25
2023-12-08T12:08:09.602Z,100524.81
2023-12-08T12:10:40.511Z,100512.47
2023-12-08T12:13:13.930Z,100519.47
2023-12-08T12:15:44.051Z,100545.84
2023-12-08T12:18:14.739Z,100518.59
2023-12-08T12:20:46.458Z,100507.13
2023-12-08T12:23:17.405Z,100516.81
2023-12-08T12:25:49.449Z,100515.00
2023-12-08T12:28:19.362Z,100518.50
2023-12-08T12:30:51.144Z,100486.91
2023-12-08T12:33:19.835Z,100518.50
2023-12-08T12:35:54.355Z,100516.72
2023-12-08T12:38:27.119Z,100528.16
2023-12-08T12:40:56.719Z,100533.38
2023-12-08T12:43:25.506Z,100529.00
2023-12-08T12:45:53.971Z,100533.38
2023-12-08T12:48:26.922Z,100504.41
2023-12-08T12:50:56.922Z,100427.25
2023-12-08T12:53:26.180Z,100541.19
2023-12-08T12:56:07.088Z,100536.78
2023-12-08T12:58:35.387Z,100526.31
2023-12-08T13:01:12.857Z,100553.53
2023-12-08T13:03:47.600Z,100557.91
2023-12-08T13:06:29.036Z,100548.31
2023-12-08T13:08:57.765Z,100560.59
2023-12-08T13:11:27.766Z,100433.50
2023-12-08T13:13:57.603Z,100552.72
2023-12-08T13:16:26.370Z,100547.41
2023-12-08T13:18:56.110Z,100566.78
2023-12-08T13:21:26.421Z,100567.66
2023-12-08T13:23:54.911Z,100549.25
2023-12-08T13:26:23.294Z,100558.91
2023-12-08T13:28:52.190Z,100573.75
2023-12-08T13:31:20.586Z,100579.88
2023-12-08T13:33:49.023Z,100581.66
2023-12-08T13:36:17.654Z,100582.56
2023-12-08T13:38:47.898Z,100552.66
2023-12-08T13:41:16.308Z,100584.28
2023-12-08T13:43:44.761Z,100576.34
2023-12-08T13:46:13.072Z,100550.03
2023-12-08T13:48:41.642Z,100590.34
2023-12-08T13:51:28.440Z,100580.59
2023-12-08T13:54:00.193Z,100578.75
2023-12-08T13:56:28.623Z,100587.53
2023-12-08T13:58:56.901Z,100586.69
2023-12-08T14:01:25.307Z,100577.78
2023-12-08T14:03:53.880Z,100582.25
2023-12-08T14:06:22.408Z,100585.78
2023-12-08T14:08:53.195Z,100591.84
2023-12-08T14:11:22.998Z,100591.81
2023-12-08T14:13:51.417Z,100598.81
2023-12-08T14:16:19.958Z,100599.53
2023-12-08T14:18:48.492Z,100599.53
2023-12-08T14:21:17.008Z,100595.19
2023-12-08T14:23:45.505Z,100589.84
2023-12-08T14:26:14.142Z,100595.09
2023-12-08T14:28:44.044Z,100593.31
2023-12-08T14:31:12.427Z,100587.97
2023-12-08T14:33:41.441Z,100577.38
2023-12-08T14:36:10.700Z,100579.25
2023-12-08T14:38:39.975Z,100572.97
2023-12-08T14:41:09.708Z,100568.72
2023-12-08T14:43:38.156Z,100591.56
2023-12-08T14:46:08.022Z,100592.38
2023-12-08T14:48:36.628Z,100601.25
2023-12-08T14:51:07.245Z,100606.47
2023-12-08T14:53:35.805Z,100610.88
2023-12-08T14:56:04.365Z,100614.41
2023-12-08T14:58:32.737Z,100612.59
2023-12-08T15:01:01.033Z,100626.72
2023-12-08T15:03:30.865Z,100606.53
2023-12-08T15:06:00.670Z,100632.78
2023-12-08T15:08:29.191Z,100631.94
2023-12-08T15:10:57.533Z,100632.88
2023-12-08T15:13:26.100Z,100627.56
2023-12-08T15:15:54.560Z,100637.25
2023-12-08T15:18:23.129Z,100639.94
2023-12-08T15:20:55.725Z,100638.19
2023-12-08T15:23:25.128Z,100639.94
2023-12-08T15:25:55.059Z,100643.47
2023-12-08T15:28:23.511Z,100640.81
2023-12-08T15:30:52.263Z,100630.28
2023-12-08T15:33:20.915Z,100642.66
2023-12-08T15:35:49.803Z,100647.06
2023-12-08T15:38:19.980Z,100655.03
2023-12-08T15:40:48.391Z,100648.03
2023-12-08T15:43:16.946Z,100662.16
2023-12-08T15:45:45.531Z,100659.50
2023-12-08T15:48:14.141Z,100662.13
2023-12-08T15:50:42.665Z,100662.06
2023-12-08T15:53:11.160Z,100662.06
2023-12-08T15:55:41.132Z,100664.69
2023-12-08T15:58:09.513Z,100660.22
2023-12-08T16:00:38.633Z,100662.84
2023-12-08T16:03:07.919Z,100650.66
2023-12-08T16:05:36.369Z,100667.31
2023-12-08T16:08:04.865Z,100671.72
2023-12-08T16:10:33.210Z,100673.50
2023-12-08T16:13:02.895Z,100663.84
2023-12-08T16:15:31.364Z,100665.63
2023-12-08T16:17:59.975Z,100673.56
2023-12-08T16:20:28.431Z,100651.72
2023-12-08T16:22:56.736Z,100671.09
2023-12-08T16:25:25.399Z,100665.78
2023-12-08T16:27:53.782Z,100676.28
2023-12-08T16:30:23.554Z,100672.84
2023-12-08T16:32:51.975Z,100668.56
2023-12-08T16:35:20.305Z,100669.44
2023-12-08T16:37:48.606Z,100693.28
2023-12-08T16:40:16.945Z,100659.75
2023-12-08T16:42:45.315Z,100672.13
2023-12-08T16:45:13.809Z,100680.97
2023-12-08T16:47:44.421Z,100680.97
2023-12-08T16:50:14.267Z,100669.50
2023-12-08T16:52:42.711Z,100676.53
2023-12-08T16:55:11.316Z,100674.84
2023-12-08T16:57:40.555Z,100677.47
2023-12-08T17:00:10.479Z,100676.59
2023-12-08T17:02:38.999Z,100673.09
2023-12-08T17:05:10.276Z,100673.09
2023-12-08T17:07:38.644Z,100687.16
2023-12-08T17:10:08.866Z,100686.22
2023-12-08T17:12:37.280Z,100677.44
2023-12-08T17:15:06.784Z,100695.03
2023-12-08T17:17:35.188Z,100690.69
2023-12-08T17:20:03.826Z,100684.56
2023-12-08T17:22:33.974Z,100692.44
2023-12-08T17:25:03.788Z,100691.59
2023-12-08T17:27:32.524Z,100692.53
2023-12-08T17:30:01.091Z,100684.59
2023-12-08T17:32:29.646Z,100690.81
2023-12-08T17:34:58.492Z,100690.75
2023-12-08T17:37:28.135Z,100693.44
2023-12-08T17:39:58.082Z,100692.59
2023-12-08T17:42:26.780Z,100693.47
2023-12-08T17:44:55.333Z,100693.44
2023-12-08T17:47:23.734Z,100683.00
2023-12-08T17:49:52.277Z,100700.56
2023-12-08T17:52:22.929Z,100665.47
2023-12-08T17:54:53.046Z,100695.31
2023-12-08T17:57:22.836Z,100701.47
2023-12-08T17:59:51.214Z,100694.44
2023-12-08T18:02:19.564Z,100714.69
2023-12-08T18:04:47.925Z,100715.53
2023-12-08T18:07:16.328Z,100712.03
2023-12-08T18:09:44.717Z,100726.09
2023-12-08T18:12:13.133Z,100717.28
2023-12-08T18:14:42.860Z,100714.69
2023-12-08T18:17:11.351Z,100712.94
2023-12-08T18:19:41.296Z,100713.84
2023-12-08T18:22:09.768Z,100706.78
2023-12-08T18:24:38.270Z,100718.22
2023-12-08T18:27:06.972Z,100707.69
2023-12-08T18:29:35.452Z,100716.47
2023-12-08T18:32:05.712Z,100715.59
2023-12-08T18:34:37.649Z,100713.84
2023-12-08T18:37:06.502Z,100719.13
2023-12-08T18:39:34.821Z,100719.09
2023-12-08T18:42:03.329Z,100720.00
2023-12-08T18:44:31.722Z,100720.88
2023-12-08T18:47:00.121Z,100723.56
2023-12-08T18:49:29.871Z,100721.72
2023-12-08T18:51:58.315Z,100717.38
2023-12-08T18:54:27.583Z,100709.47
2023-12-08T18:56:56.047Z,100729.72
2023-12-08T18:59:24.402Z,100727.94
2023-12-08T19:01:52.973Z,100724.50
2023-12-08T19:04:21.373Z,100725.41
2023-12-08T19:06:51.113Z,100730.59
2023-12-08T19:09:19.591Z,100717.38
2023-12-08T19:11:48.114Z,100724.44
2023-12-08T19:14:16.539Z,100723.63
2023-12-08T19:16:44.892Z,100711.25
2023-12-08T19:19:14.175Z,100725.31
2023-12-08T19:21:42.902Z,100729.66
2023-12-08T19:24:12.653Z,100735.00
2023-12-08T19:26:40.997Z,100741.16
2023-12-08T19:29:09.388Z,100744.63
2023-12-08T19:31:37.856Z,100734.91
2023-12-08T19:34:06.767Z,100735.78
2023-12-08T19:36:35.515Z,100754.25
2023-12-08T19:39:08.135Z,100748.06
2023-12-08T19:41:38.055Z,100744.50
2023-12-08T19:44:08.102Z,100744.50
2023-12-08T19:46:39.373Z,100740.94
2023-12-08T19:49:07.947Z,100740.09
2023-12-08T19:51:36.345Z,100753.34
2023-12-08T19:54:06.361Z,100744.56
2023-12-08T19:56:34.719Z,100770.19
2023-12-08T19:59:05.242Z,100747.25
2023-12-08T20:01:33.595Z,100749.03
2023-12-08T20:04:01.984Z,100749.03
2023-12-08T20:06:32.228Z,100742.97
2023-12-08T20:09:00.791Z,100750.84
2023-12-08T20:11:29.187Z,100749.09
2023-12-08T20:13:57.802Z,100754.34
2023-12-08T20:16:27.623Z,100755.22
2023-12-08T20:18:56.528Z,100754.34
2023-12-08T20:21:24.970Z,100754.34
2023-12-08T20:23:53.660Z,100760.50
2023-12-08T20:26:22.024Z,100754.38
2023-12-08T20:28:51.707Z,100755.25
2023-12-08T20:31:21.758Z,100762.28
2023-12-08T20:33:53.059Z,100760.50
2023-12-08T20:36:23.947Z,100753.50
2023-12-08T20:38:54.427Z,100752.59
2023-12-08T20:41:23.197Z,100754.34
2023-12-08T20:43:51.678Z,100757.84
2023-12-08T20:46:20.132Z,100767.56
2023-12-08T20:48:50.057Z,100765.84
2023-12-08T20:51:18.593Z,100757.88
2023-12-08T20:53:47.556Z,100757.00
2023-12-08T20:56:17.869Z,100748.28
2023-12-08T20:58:46.387Z,100735.06
2023-12-08T21:01:15.166Z,100743.00
2023-12-08T21:03:43.614Z,100746.53
2023-12-08T21:06:13.512Z,100747.41
2023-12-08T21:08:41.964Z,100749.19
2023-12-08T21:11:10.341Z,100758.84
2023-12-08T21:13:39.130Z,100759.75
2023-12-08T21:16:08.481Z,100761.53
2023-12-08T21:18:37.023Z,100757.09
2023-12-08T21:21:06.095Z,100751.84
2023-12-08T21:23:35.889Z,100763.25
2023-12-08T21:26:05.005Z,100759.75
2023-12-08T21:28:33.795Z,100765.03
2023-12-08T21:31:02.192Z,100760.63
2023-12-08T21:33:30.736Z,100766.78
2023-12-08T21:35:59.233Z,100654.31
2023-12-08T21:38:27.883Z,100772.06
2023-12-08T21:40:57.938Z,100753.53
2023-12-08T21:43:26.289Z,100770.28
2023-12-08T21:45:54.714Z,100743.03
2023-12-08T21:48:23.180Z,100762.38
2023-12-08T21:50:51.653Z,100771.16
2023-12-08T21:53:20.003Z,100763.28
2023-12-08T21:55:48.433Z,100771.19
2023-12-08T21:58:18.515Z,100768.53
2023-12-08T22:00:47.440Z,100775.56
2023-12-08T22:03:16.059Z,100762.38
2023-12-08T22:05:44.443Z,100762.34
2023-12-08T22:08:13.402Z,100752.66
2023-12-08T22:10:43.025Z,100770.28
2023-12-08T22:13:12.520Z,100775.53
2023-12-08T22:15:42.382Z,100772.06
2023-12-08T22:18:10.921Z,100777.31
2023-12-08T22:20:39.333Z,100770.25
2023-12-08T22:23:07.801Z,100771.19
2023-12-08T22:25:38.062Z,100775.56
2023-12-08T22:28:06.782Z,100773.81
2023-12-08T22:30:35.207Z,100781.75
2023-12-08T22:33:05.119Z,100768.56
2023-12-08T22:35:33.558Z,100767.66
2023-12-08T22:38:01.994Z,100776.44
2023-12-08T22:40:30.316Z,100777.38
2023-12-08T22:42:58.833Z,100782.69
2023-12-08T22:45:27.160Z,100781.78
2023-12-08T22:47:55.562Z,100793.28
2023-12-08T22:50:32.143Z,100787.09
2023-12-08T22:53:04.473Z,100799.41
2023-12-08T22:55:33.133Z,100776.50
2023-12-08T22:58:01.731Z,100805.53
2023-12-08T23:00:30.191Z,100791.44
2023-12-08T23:02:58.931Z,100788.78
2023-12-08T23:05:28.758Z,100805.50
2023-12-08T23:07:57.118Z,100801.97
2023-12-08T23:10:25.872Z,100796.72
2023-12-08T23:12:54.322Z,100809.09
2023-12-08T23:15:23.361Z,100801.13
2023-12-08T23:17:54.117Z,100809.13
2023-12-08T23:20:22.628Z,100788.06
2023-12-08T23:22:52.374Z,100806.47
2023-12-08T23:25:20.819Z,100809.09
2023-12-08T23:27:49.156Z,100810.00
2023-12-08T23:30:17.679Z,100802.09
2023-12-08T23:32:46.079Z,100800.31
2023-12-08T23:35:14.547Z,100817.97
2023-12-08T23:37:43.128Z,100810.91
2023-12-08T23:40:13.824Z,100808.25
2023-12-08T23:42:42.454Z,100817.97
2023-12-08T23:45:13.707Z,100809.16
2023-12-08T23:47:42.768Z,100804.75
2023-12-08T23:50:11.688Z,100811.78
2023-12-08T23:52:40.032Z,100793.34
2023-12-08T23:55:09.014Z,100792.47
2023-12-08T23:57:38.713Z,100803.00
